Time;durP1;ratioP1;P1;durP2;ratioP2;P2;SDS_P1;SDS_P2;PMS_P1;PMS_P2;Temp;Humidity;BMP_temperature;BMP_pressure;BME280_temperature;BME280_humidity;BME280_pressure;Samples;Min_cycle;Max_cycle;Signal;HPM_P1;HPM_P2
2022/12/09 00:02:07;;;;;;;37.15;15.90;;;0.30;99.90;;;;;;4957616;28;20394;-83
2022/12/09 00:04:33;;;;;;;35.13;15.63;;;0.50;99.90;;;;;;4941662;28;20105;-84
2022/12/09 00:06:58;;;;;;;35.55;15.50;;;-0.20;99.90;;;;;;4957698;28;20098;-83
2022/12/09 00:09:24;;;;;;;32.78;15.15;;;-0.20;99.90;;;;;;4989580;28;20051;-85
2022/12/09 00:11:51;;;;;;;31.67;14.68;;;-0.20;99.90;;;;;;4941697;28;20086;-84
2022/12/09 00:14:17;;;;;;;31.50;13.80;;;-0.20;99.90;;;;;;4957465;28;20055;-83
2022/12/09 00:16:42;;;;;;;31.80;13.50;;;-0.20;99.90;;;;;;4959552;28;20043;-84
2022/12/09 00:19:08;;;;;;;31.20;13.07;;;0.40;99.90;;;;;;4961970;28;20046;-84
2022/12/09 00:21:34;;;;;;;29.17;13.18;;;-0.30;99.90;;;;;;4960814;28;20051;-84
2022/12/09 00:24:04;;;;;;;25.27;12.18;;;-0.40;99.90;;;;;;4961082;28;20043;-83
2022/12/09 00:26:30;;;;;;;24.75;12.75;;;-0.50;99.90;;;;;;4961036;28;20061;-84
2022/12/09 00:28:55;;;;;;;29.00;13.75;;;-0.50;99.90;;;;;;4993693;28;20374;-84
2022/12/09 00:31:24;;;;;;;31.63;15.10;;;-0.50;99.90;;;;;;4960672;28;20114;-84
2022/12/09 00:33:50;;;;;;;28.42;13.13;;;-0.50;99.90;;;;;;4960447;28;20117;-84
2022/12/09 00:36:20;;;;;;;32.22;12.50;;;-0.50;99.90;;;;;;4960328;28;20055;-83
2022/12/09 00:38:45;;;;;;;26.65;12.50;;;-0.50;99.90;;;;;;4960448;28;20079;-84
2022/12/09 00:41:11;;;;;;;30.58;13.60;;;-0.60;99.90;;;;;;4960471;28;20043;-84
2022/12/09 00:43:37;;;;;;;30.55;14.38;;;-0.60;99.90;;;;;;4960693;28;20094;-84
2022/12/09 00:46:03;;;;;;;34.85;15.52;;;0.80;99.90;;;;;;4960311;28;20049;-83
2022/12/09 00:48:29;;;;;;;37.72;15.70;;;-0.50;99.90;;;;;;4961187;28;20385;-85
2022/12/09 00:50:55;;;;;;;32.83;13.60;;;-0.40;99.90;;;;;;4960946;28;20138;-85
2022/12/09 00:53:20;;;;;;;32.90;13.82;;;-0.40;99.90;;;;;;4960941;28;20078;-85
2022/12/09 00:55:47;;;;;;;29.00;13.00;;;-0.30;99.90;;;;;;4960694;28;20047;-85
2022/12/09 00:58:12;;;;;;;30.70;14.70;;;-0.30;99.90;;;;;;4944453;28;20058;-85
2022/12/09 01:00:39;;;;;;;32.55;13.48;;;-0.30;99.90;;;;;;4944636;28;20205;-84
2022/12/09 01:03:04;;;;;;;30.25;13.32;;;0.70;99.90;;;;;;4976096;28;20146;-85
2022/12/09 01:05:30;;;;;;;31.20;13.68;;;0.30;99.90;;;;;;4960118;28;20121;-84
2022/12/09 01:07:55;;;;;;;28.65;12.57;;;0.30;99.90;;;;;;4960950;28;20101;-84
2022/12/09 01:10:21;;;;;;;30.95;13.02;;;0.40;99.90;;;;;;4960113;28;20038;-84
2022/12/09 01:12:47;;;;;;;26.77;12.65;;;-0.20;99.90;;;;;;4976343;28;20049;-85
2022/12/09 01:15:12;;;;;;;34.63;13.48;;;-0.20;99.90;;;;;;4944182;28;20042;-85
2022/12/09 01:17:38;;;;;;;31.35;13.25;;;-0.50;99.90;;;;;;4959986;28;20043;-85
2022/12/09 01:20:05;;;;;;;24.42;12.77;;;-0.10;99.90;;;;;;4960149;28;20133;-85
2022/12/09 01:22:30;;;;;;;30.45;13.23;;;-0.60;99.90;;;;;;4959850;28;20491;-84
2022/12/09 01:24:56;;;;;;;34.08;13.63;;;-0.70;99.90;;;;;;4992558;28;20047;-84
2022/12/09 01:27:22;;;;;;;31.70;13.70;;;-0.70;99.90;;;;;;4959194;28;20054;-84
2022/12/09 01:29:47;;;;;;;30.23;13.40;;;-0.30;99.90;;;;;;4959484;28;20059;-84
2022/12/09 01:32:13;;;;;;;27.70;13.45;;;-0.70;99.90;;;;;;4992135;28;20050;-84
2022/12/09 01:34:39;;;;;;;28.52;12.25;;;-0.70;99.90;;;;;;4992217;28;20038;-85
2022/12/09 01:37:04;;;;;;;29.45;13.45;;;-0.70;99.90;;;;;;4959539;28;20129;-85
2022/12/09 01:39:30;;;;;;;29.92;13.90;;;0.00;99.90;;;;;;4975365;28;20047;-85
2022/12/09 01:41:56;;;;;;;28.33;13.63;;;-0.60;99.90;;;;;;4975854;28;20050;-85
2022/12/09 01:44:25;;;;;;;29.88;13.38;;;-0.60;99.90;;;;;;4959368;28;20073;-85
2022/12/09 01:46:55;;;;;;;32.75;13.63;;;-0.50;99.90;;;;;;4992340;28;20435;-84
2022/12/09 01:49:41;;;;;;;30.40;14.10;;;-0.50;99.90;;;;;;4991569;28;20102;-84
2022/12/09 01:52:13;;;;;;;31.50;12.98;;;0.50;99.90;;;;;;4959766;28;20058;-85
2022/12/09 01:54:39;;;;;;;28.42;13.63;;;-0.30;99.90;;;;;;4943767;28;20057;-85
2022/12/09 01:57:05;;;;;;;28.02;12.95;;;-0.30;99.90;;;;;;4957538;28;20047;-84
2022/12/09 01:59:30;;;;;;;33.85;12.65;;;1.10;99.90;;;;;;4921650;29;20051;-84
2022/12/09 02:01:57;;;;;;;28.80;12.80;;;0.30;99.90;;;;;;4936889;29;20569;-84
2022/12/09 02:04:24;;;;;;;33.58;12.45;;;-0.20;99.90;;;;;;4937137;28;20089;-84
2022/12/09 02:06:49;;;;;;;29.90;13.32;;;-0.20;99.90;;;;;;4936775;29;20048;-85
2022/12/09 02:09:15;;;;;;;28.63;13.15;;;-0.20;99.90;;;;;;4936842;29;20051;-83
2022/12/09 02:11:44;;;;;;;41.60;13.30;;;1.20;99.90;;;;;;4936972;29;20373;-85
2022/12/09 02:14:17;;;;;;;30.30;13.18;;;-0.10;99.90;;;;;;4920613;29;20086;-85
2022/12/09 02:17:05;;;;;;;37.42;14.50;;;-0.10;99.90;;;;;;4920964;29;20127;-85
2022/12/09 02:19:54;;;;;;;30.90;13.10;;;-0.10;99.90;;;;;;4920660;29;20094;-84
2022/12/09 02:22:23;;;;;;;31.30;13.73;;;-0.10;99.90;;;;;;4921012;29;20492;-85
2022/12/09 02:24:56;;;;;;;33.63;12.98;;;0.40;99.90;;;;;;4936439;29;20052;-84
2022/12/09 02:27:45;;;;;;;33.97;12.97;;;-0.10;99.90;;;;;;4921020;29;20052;-85
2022/12/09 02:30:13;;;;;;;30.95;14.10;;;0.00;99.90;;;;;;4920929;29;20091;-85
2022/12/09 02:32:56;;;;;;;31.70;13.75;;;0.00;99.90;;;;;;4920324;29;20405;-85
2022/12/09 02:35:29;;;;;;;35.25;14.55;;;0.10;99.90;;;;;;4936680;29;20087;-85
2022/12/09 02:38:09;;;;;;;33.97;13.73;;;0.00;99.90;;;;;;4920733;29;20055;-85
2022/12/09 02:40:47;;;;;;;30.63;13.20;;;0.00;99.90;;;;;;4919330;29;20103;-85
2022/12/09 02:43:12;;;;;;;33.75;14.30;;;-0.10;99.90;;;;;;4920053;29;20048;-85
2022/12/09 02:45:38;;;;;;;33.05;14.73;;;1.40;99.90;;;;;;4919960;29;20103;-85
2022/12/09 02:48:04;;;;;;;32.35;13.40;;;0.80;99.90;;;;;;4967986;28;20102;-85
2022/12/09 02:50:32;;;;;;;34.00;13.68;;;-0.10;99.90;;;;;;4920312;29;20103;-85
2022/12/09 02:52:59;;;;;;;30.42;13.30;;;-0.10;99.90;;;;;;4920859;29;20078;-84
2022/12/09 02:55:24;;;;;;;34.47;14.77;;;-0.10;99.90;;;;;;4935720;29;20090;-84
2022/12/09 02:57:52;;;;;;;30.23;12.95;;;-0.10;99.90;;;;;;4924793;29;20083;-84
2022/12/09 03:00:18;;;;;;;33.13;14.35;;;-0.10;99.90;;;;;;4954993;29;20097;-85
2022/12/09 03:02:46;;;;;;;35.30;15.02;;;-0.10;99.90;;;;;;4955244;28;20039;-85
2022/12/09 03:05:24;;;;;;;39.42;14.75;;;-0.10;99.90;;;;;;4954791;29;20047;-85
2022/12/09 03:08:11;;;;;;;30.35;14.13;;;-0.20;99.90;;;;;;4955290;29;20138;-85
2022/12/09 03:10:52;;;;;;;33.90;13.70;;;-0.10;99.90;;;;;;4953912;29;20058;-85
2022/12/09 03:13:21;;;;;;;33.92;14.30;;;-0.10;99.90;;;;;;4970054;28;20054;-85
2022/12/09 03:15:49;;;;;;;31.95;13.52;;;-0.20;99.90;;;;;;4954548;29;20101;-84
2022/12/09 03:18:16;;;;;;;27.95;13.18;;;1.00;99.90;;;;;;4954437;29;20053;-85
2022/12/09 03:20:41;;;;;;;29.38;13.75;;;0.30;99.90;;;;;;4955590;29;20126;-85
2022/12/09 03:23:07;;;;;;;33.30;12.13;;;-0.20;99.90;;;;;;4954361;29;20603;-84
2022/12/09 03:25:37;;;;;;;38.97;14.57;;;-0.30;99.90;;;;;;4938227;29;20569;-85
2022/12/09 03:28:04;;;;;;;32.08;13.52;;;1.00;99.90;;;;;;4954060;29;20392;-85
2022/12/09 03:30:30;;;;;;;32.50;13.68;;;-0.20;99.90;;;;;;4986634;28;20062;-84
2022/12/09 03:32:56;;;;;;;30.10;14.10;;;0.40;99.90;;;;;;4970697;28;20130;-85
2022/12/09 03:35:28;;;;;;;31.05;12.68;;;-0.20;99.90;;;;;;4938198;29;20134;-85
2022/12/09 03:37:54;;;;;;;31.70;13.82;;;-0.30;99.90;;;;;;4954974;29;20466;-84
2022/12/09 03:40:23;;;;;;;33.92;13.95;;;-0.30;99.90;;;;;;4955350;29;20047;-84
2022/12/09 03:42:52;;;;;;;33.40;14.60;;;-0.30;99.90;;;;;;4954483;29;20126;-83
2022/12/09 03:45:18;;;;;;;38.88;13.98;;;-0.20;99.90;;;;;;4953809;29;20054;-84
2022/12/09 03:47:43;;;;;;;32.30;13.52;;;-0.20;99.90;;;;;;4987285;28;20047;-84
2022/12/09 03:50:09;;;;;;;38.42;14.38;;;1.10;99.90;;;;;;4954251;29;20063;-84
2022/12/09 03:52:49;;;;;;;34.03;13.35;;;-0.20;99.90;;;;;;4958294;28;20098;-83
2022/12/09 03:55:18;;;;;;;32.55;13.73;;;0.30;99.90;;;;;;4990672;28;20051;-83
2022/12/09 03:57:44;;;;;;;30.63;13.32;;;-0.30;99.90;;;;;;4937729;29;20112;-83
2022/12/09 04:00:10;;;;;;;34.40;13.45;;;-0.20;99.90;;;;;;4923043;29;20121;-85
2022/12/09 04:02:35;;;;;;;33.47;14.38;;;-0.30;99.90;;;;;;4938922;29;20486;-84
2022/12/09 04:05:01;;;;;;;32.88;14.18;;;0.70;99.90;;;;;;4923522;29;20138;-85
2022/12/09 04:07:27;;;;;;;30.40;13.30;;;-0.40;99.90;;;;;;4938921;29;20083;-85
2022/12/09 04:09:52;;;;;;;39.65;13.93;;;-0.40;99.90;;;;;;4922972;29;20040;-84
2022/12/09 04:12:18;;;;;;;35.13;14.73;;;1.00;99.90;;;;;;4923600;29;20087;-85
2022/12/09 04:14:44;;;;;;;33.05;13.85;;;-0.50;99.90;;;;;;4922907;29;20070;-85
2022/12/09 04:17:10;;;;;;;32.47;12.73;;;-0.60;99.90;;;;;;4939041;29;20514;-84
2022/12/09 04:19:36;;;;;;;39.03;14.25;;;-0.70;99.90;;;;;;4922784;29;20051;-83
2022/12/09 04:22:02;;;;;;;31.88;13.45;;;-0.70;99.90;;;;;;4938591;29;20620;-84
2022/12/09 04:24:27;;;;;;;33.53;13.70;;;0.10;99.90;;;;;;4938647;29;20047;-84
2022/12/09 04:26:53;;;;;;;31.75;13.55;;;-0.80;99.90;;;;;;4970641;28;20084;-84
2022/12/09 04:29:19;;;;;;;35.08;14.73;;;-0.40;99.90;;;;;;4939016;29;20353;-84
2022/12/09 04:31:44;;;;;;;34.72;13.43;;;-0.70;99.90;;;;;;4938278;29;20525;-85
2022/12/09 04:34:10;;;;;;;32.78;13.50;;;0.40;99.90;;;;;;4938627;29;20134;-84
2022/12/09 04:36:36;;;;;;;35.58;14.63;;;-0.90;99.90;;;;;;4954019;29;20135;-85
2022/12/09 04:39:01;;;;;;;34.97;14.85;;;-0.80;99.90;;;;;;4923068;29;20082;-84
2022/12/09 04:41:27;;;;;;;31.85;14.02;;;-1.00;99.90;;;;;;4938858;29;20360;-84
2022/12/09 04:43:53;;;;;;;34.70;13.80;;;-1.00;99.90;;;;;;4937773;29;20040;-84
2022/12/09 04:46:18;;;;;;;37.60;15.18;;;-1.10;99.90;;;;;;4938441;29;20055;-84
2022/12/09 04:48:44;;;;;;;37.38;14.52;;;-1.10;99.90;;;;;;4938153;29;20054;-84
2022/12/09 04:51:13;;;;;;;36.42;14.48;;;-1.00;99.90;;;;;;4922730;29;20055;-84
2022/12/09 04:53:39;;;;;;;37.72;14.88;;;-0.10;99.90;;;;;;4938541;29;20082;-84
2022/12/09 04:56:07;;;;;;;36.78;14.35;;;-1.20;99.90;;;;;;4937892;29;20054;-85
2022/12/09 04:58:33;;;;;;;31.85;14.48;;;-1.30;99.90;;;;;;4937696;28;20110;-84
2022/12/09 05:01:03;;;;;;;38.03;14.35;;;-1.30;99.90;;;;;;4922106;29;20468;-84
2022/12/09 05:03:29;;;;;;;37.13;15.27;;;-0.70;99.90;;;;;;4968980;28;20044;-85
2022/12/09 05:05:54;;;;;;;36.95;13.98;;;-1.30;99.90;;;;;;4922068;29;20055;-84
2022/12/09 05:08:20;;;;;;;36.90;14.25;;;0.30;99.90;;;;;;4938516;29;20110;-84
2022/12/09 05:10:46;;;;;;;36.20;14.85;;;0.00;99.90;;;;;;4937890;29;20087;-84
2022/12/09 05:13:12;;;;;;;36.22;15.18;;;0.00;99.90;;;;;;4921723;29;20083;-84
2022/12/09 05:15:38;;;;;;;39.78;15.27;;;-0.10;99.90;;;;;;4921548;29;20134;-84
2022/12/09 05:18:03;;;;;;;46.13;17.27;;;-0.20;99.90;;;;;;4953566;28;20047;-84
2022/12/09 05:20:29;;;;;;;40.78;15.88;;;-0.40;99.90;;;;;;4969868;28;20044;-84
2022/12/09 05:22:55;;;;;;;42.72;16.67;;;-0.50;99.90;;;;;;4954104;29;20054;-85
2022/12/09 05:25:21;;;;;;;42.03;15.93;;;-0.70;99.90;;;;;;4937650;29;20055;-85
2022/12/09 05:27:47;;;;;;;42.13;16.00;;;-0.70;99.90;;;;;;4922272;29;20063;-85
2022/12/09 05:30:13;;;;;;;42.30;15.77;;;-0.70;99.90;;;;;;4937467;29;20058;-85
2022/12/09 05:32:39;;;;;;;43.65;16.30;;;-0.70;99.90;;;;;;4969629;28;20087;-85
2022/12/09 05:35:05;;;;;;;38.13;16.13;;;-0.20;99.90;;;;;;4938652;29;20075;-85
2022/12/09 05:37:30;;;;;;;41.00;15.82;;;-0.80;99.90;;;;;;4937457;29;20052;-84
2022/12/09 05:39:56;;;;;;;43.03;15.57;;;-0.80;99.90;;;;;;4953098;29;20055;-84
2022/12/09 05:42:21;;;;;;;42.85;15.60;;;0.60;99.90;;;;;;4921021;29;20039;-84
2022/12/09 05:44:47;;;;;;;38.28;14.98;;;-0.80;99.90;;;;;;4936911;29;20143;-84
2022/12/09 05:47:13;;;;;;;40.03;17.00;;;-0.90;99.90;;;;;;4937716;29;20048;-84
2022/12/09 05:49:38;;;;;;;41.50;15.45;;;-0.90;99.90;;;;;;4937221;29;20055;-85
2022/12/09 05:52:04;;;;;;;41.00;15.45;;;-0.90;99.90;;;;;;4920940;29;20555;-84
2022/12/09 05:54:30;;;;;;;38.03;15.32;;;-1.00;99.90;;;;;;4968930;28;20052;-85
2022/12/09 05:56:56;;;;;;;40.35;16.38;;;0.10;99.90;;;;;;4920952;29;20092;-84
2022/12/09 05:59:23;;;;;;;40.47;16.95;;;-1.00;99.90;;;;;;4952661;28;20087;-83
2022/12/09 06:01:48;;;;;;;39.70;16.30;;;-0.60;99.90;;;;;;4936772;29;20052;-84
2022/12/09 06:04:14;;;;;;;42.13;16.45;;;-0.70;99.90;;;;;;4921455;29;20139;-84
2022/12/09 06:06:40;;;;;;;37.35;16.15;;;-1.10;99.90;;;;;;4921222;29;20492;-85
2022/12/09 06:09:10;;;;;;;39.53;15.93;;;-1.10;99.90;;;;;;4952236;29;20052;-83
2022/12/09 06:11:36;;;;;;;44.78;16.27;;;-1.30;99.90;;;;;;4921270;29;20071;-84
2022/12/09 06:14:02;;;;;;;41.38;16.40;;;-1.40;99.90;;;;;;4936378;29;20126;-85
2022/12/09 06:16:28;;;;;;;40.47;16.05;;;-1.10;99.90;;;;;;4936914;29;20135;-84
2022/12/09 06:18:53;;;;;;;37.42;15.45;;;-0.60;99.90;;;;;;4936567;29;20083;-84
2022/12/09 06:21:19;;;;;;;39.53;16.20;;;-1.50;99.90;;;;;;4920814;29;20059;-83
2022/12/09 06:23:45;;;;;;;41.30;16.25;;;0.00;99.90;;;;;;4920097;29;20090;-84
2022/12/09 06:26:25;;;;;;;41.13;16.25;;;-1.60;99.90;;;;;;4920837;29;20048;-84
2022/12/09 06:28:53;;;;;;;40.58;17.17;;;-1.60;99.90;;;;;;4937172;29;20048;-84
2022/12/09 06:31:18;;;;;;;40.67;18.85;;;-1.60;99.90;;;;;;4936461;29;20115;-83
2022/12/09 06:33:44;;;;;;;39.40;17.35;;;-1.70;99.90;;;;;;4921066;29;20051;-84
2022/12/09 06:36:10;;;;;;;41.70;16.73;;;-0.40;99.90;;;;;;4936642;29;20051;-84
2022/12/09 06:38:36;;;;;;;39.75;16.40;;;-0.30;99.90;;;;;;4936452;29;20472;-84
2022/12/09 06:41:06;;;;;;;37.67;17.48;;;-1.10;99.90;;;;;;4936913;29;20048;-85
2022/12/09 06:43:32;;;;;;;38.70;17.50;;;-1.70;99.90;;;;;;4936760;29;20051;-83
2022/12/09 06:45:57;;;;;;;36.58;16.10;;;-1.70;99.90;;;;;;4920274;29;20051;-83
2022/12/09 06:48:23;;;;;;;41.58;15.82;;;-1.70;99.90;;;;;;4936549;29;20410;-84
2022/12/09 06:50:50;;;;;;;39.03;17.25;;;-1.70;99.90;;;;;;4920586;29;20138;-83
2022/12/09 06:53:15;;;;;;;40.22;17.30;;;-1.00;99.90;;;;;;4936322;29;20077;-84
2022/12/09 06:55:41;;;;;;;39.28;16.10;;;-1.80;99.90;;;;;;4920300;29;20134;-84
2022/12/09 06:58:06;;;;;;;37.60;16.92;;;-1.80;99.90;;;;;;4938561;28;20059;-84
2022/12/09 07:00:32;;;;;;;39.90;16.92;;;-1.80;99.90;;;;;;4968364;28;20056;-83
2022/12/09 07:02:58;;;;;;;42.03;17.98;;;-1.80;99.90;;;;;;4936260;29;20460;-83
2022/12/09 07:05:24;;;;;;;43.40;16.50;;;-0.50;99.90;;;;;;4919958;29;20043;-84
2022/12/09 07:07:51;;;;;;;39.13;16.60;;;-1.20;99.90;;;;;;4936008;29;20047;-84
2022/12/09 07:10:16;;;;;;;39.22;17.83;;;-1.80;99.90;;;;;;4936050;29;20123;-84
2022/12/09 07:12:42;;;;;;;40.90;17.58;;;-1.80;99.90;;;;;;4936479;29;20142;-85
2022/12/09 07:15:08;;;;;;;43.13;17.80;;;-1.80;99.90;;;;;;4935875;29;20071;-83
2022/12/09 07:17:34;;;;;;;43.65;17.42;;;-1.80;99.90;;;;;;4935170;29;20504;-83
2022/12/09 07:20:00;;;;;;;42.33;17.25;;;-1.70;99.90;;;;;;4967558;28;20044;-83
2022/12/09 07:22:25;;;;;;;45.13;17.48;;;-1.70;99.90;;;;;;4920071;29;20052;-84
2022/12/09 07:24:51;;;;;;;40.70;17.23;;;-0.50;99.90;;;;;;4936256;29;20451;-84
2022/12/09 07:27:17;;;;;;;41.17;17.95;;;-1.80;99.90;;;;;;4935349;29;20099;-83
2022/12/09 07:29:42;;;;;;;38.78;16.80;;;-1.70;99.90;;;;;;4935802;29;20134;-84
2022/12/09 07:32:09;;;;;;;40.47;16.73;;;-1.80;99.90;;;;;;4936078;29;20056;-84
2022/12/09 07:34:35;;;;;;;45.75;19.20;;;-1.80;99.90;;;;;;4935729;29;20048;-84
2022/12/09 07:37:01;;;;;;;45.63;18.77;;;-1.80;99.90;;;;;;4920217;29;20481;-83
2022/12/09 07:39:26;;;;;;;39.55;18.27;;;-1.80;99.90;;;;;;4920083;29;20109;-83
2022/12/09 07:41:53;;;;;;;42.50;17.50;;;-1.80;99.90;;;;;;4920593;29;20056;-83
2022/12/09 07:44:18;;;;;;;44.55;17.65;;;-1.80;99.90;;;;;;4935445;29;20039;-83
2022/12/09 07:46:44;;;;;;;42.25;18.13;;;-1.80;99.90;;;;;;4935212;29;20048;-83
2022/12/09 07:49:10;;;;;;;46.65;18.92;;;-1.80;99.90;;;;;;4935511;29;20079;-83
2022/12/09 07:51:36;;;;;;;44.03;18.55;;;-1.70;99.90;;;;;;4935457;29;20083;-83
2022/12/09 07:54:01;;;;;;;47.85;19.10;;;-1.70;99.90;;;;;;4935507;29;20098;-83
2022/12/09 07:56:27;;;;;;;45.85;18.02;;;-0.40;99.90;;;;;;4919382;29;20073;-83
2022/12/09 07:58:53;;;;;;;42.42;17.58;;;-1.70;99.90;;;;;;4931248;29;20059;-83
2022/12/09 08:01:21;;;;;;;44.58;17.83;;;-1.80;99.90;;;;;;4986890;28;20063;-83
2022/12/09 08:03:47;;;;;;;39.38;18.00;;;-1.80;99.90;;;;;;4954285;29;20131;-84
2022/12/09 08:06:14;;;;;;;42.50;18.10;;;-1.80;99.90;;;;;;4970582;28;20079;-83
2022/12/09 08:08:40;;;;;;;41.67;18.65;;;-1.70;99.90;;;;;;4954307;29;20467;-83
2022/12/09 08:11:13;;;;;;;42.13;17.95;;;-0.50;99.90;;;;;;4986567;28;20090;-83
2022/12/09 08:13:40;;;;;;;42.10;17.73;;;-1.60;99.90;;;;;;4955033;29;20054;-83
2022/12/09 08:16:07;;;;;;;42.88;18.15;;;-0.30;99.90;;;;;;4986695;28;20044;-83
2022/12/09 08:18:33;;;;;;;48.65;19.65;;;-1.60;99.90;;;;;;4954391;29;20138;-84
2022/12/09 08:21:02;;;;;;;43.45;18.60;;;-1.50;99.90;;;;;;4986727;28;20480;-83
2022/12/09 08:23:27;;;;;;;45.80;18.73;;;-1.40;99.90;;;;;;4938172;29;20094;-83
2022/12/09 08:25:54;;;;;;;44.28;18.70;;;-1.00;99.90;;;;;;4986586;28;20047;-83
2022/12/09 08:28:20;;;;;;;45.10;19.67;;;-0.90;99.90;;;;;;4955359;28;20085;-83
2022/12/09 08:30:46;;;;;;;49.33;19.75;;;-1.10;99.90;;;;;;4954844;29;20062;-84
2022/12/09 08:33:11;;;;;;;48.03;19.45;;;0.00;99.90;;;;;;4954739;29;20051;-83
2022/12/09 08:35:37;;;;;;;54.45;19.98;;;-0.80;99.90;;;;;;4971390;28;20051;-85
2022/12/09 08:38:03;;;;;;;48.72;20.08;;;-0.90;99.90;;;;;;4956022;28;20043;-86
2022/12/09 08:40:28;;;;;;;51.25;20.30;;;0.90;99.90;;;;;;4958370;29;20053;-86
2022/12/09 08:42:54;;;;;;;49.70;19.67;;;-0.40;99.90;;;;;;4958535;29;20419;-86
2022/12/09 08:45:20;;;;;;;48.90;19.90;;;-0.10;99.90;;;;;;4966266;29;20401;-85
2022/12/09 08:47:45;;;;;;;52.33;20.77;;;1.30;99.90;;;;;;4974653;28;20051;-86
2022/12/09 08:50:11;;;;;;;47.53;20.80;;;1.50;99.90;;;;;;4958474;29;20171;-85
2022/12/09 08:52:37;;;;;;;54.85;21.92;;;1.70;99.90;;;;;;4958917;29;20057;-85
2022/12/09 08:55:03;;;;;;;46.03;18.83;;;1.20;99.90;;;;;;4990579;28;20043;-86
2022/12/09 08:57:28;;;;;;;46.50;20.23;;;1.10;99.90;;;;;;4990175;28;20051;-87
2022/12/09 08:59:54;;;;;;;50.15;20.40;;;1.40;99.90;;;;;;4961647;28;20146;-88
2022/12/09 09:02:20;;;;;;;39.55;18.98;;;1.70;99.90;;;;;;4961443;28;20050;-84
2022/12/09 09:04:45;;;;;;;43.55;18.92;;;2.30;99.90;;;;;;4960328;28;20062;-86
2022/12/09 09:07:11;;;;;;;41.78;19.90;;;2.40;99.90;;;;;;4976680;28;20049;-85
2022/12/09 09:09:37;;;;;;;44.78;20.17;;;3.60;99.90;;;;;;4993082;28;20042;-84
2022/12/09 09:12:03;;;;;;;38.10;19.73;;;2.50;99.90;;;;;;4944329;28;20465;-89
2022/12/09 09:14:29;;;;;;;37.58;19.25;;;2.60;99.90;;;;;;4961080;28;20075;-89
2022/12/09 09:16:54;;;;;;;41.13;20.88;;;4.10;99.90;;;;;;4992847;28;20051;-87
2022/12/09 09:19:21;;;;;;;41.15;20.33;;;2.70;99.90;;;;;;4961164;28;20056;-86
2022/12/09 09:21:47;;;;;;;39.05;20.05;;;2.30;99.90;;;;;;4961000;28;20390;-86
2022/12/09 09:24:14;;;;;;;43.90;22.08;;;2.20;99.90;;;;;;4959956;28;20133;-85
2022/12/09 09:26:40;;;;;;;39.75;21.10;;;1.90;99.90;;;;;;4960613;28;20137;-85
2022/12/09 09:29:08;;;;;;;44.60;20.90;;;1.60;99.90;;;;;;4959890;28;20113;-85
2022/12/09 09:31:37;;;;;;;44.65;21.88;;;1.40;99.90;;;;;;4959975;28;20054;-87
2022/12/09 09:34:03;;;;;;;46.58;21.73;;;1.30;99.90;;;;;;4960241;28;20149;-86
2022/12/09 09:36:28;;;;;;;42.45;22.08;;;1.20;99.90;;;;;;4993002;28;20042;-87
2022/12/09 09:38:55;;;;;;;45.20;22.38;;;1.20;99.90;;;;;;4992573;28;20090;-85
2022/12/09 09:41:26;;;;;;;49.85;23.85;;;1.10;99.90;;;;;;4976144;28;20062;-84
2022/12/09 09:43:52;;;;;;;54.35;23.85;;;1.10;99.90;;;;;;4975558;28;20126;-84
2022/12/09 09:46:41;;;;;;;63.88;27.42;;;1.50;99.90;;;;;;4962714;28;20136;-88
2022/12/09 09:49:11;;;;;;;55.03;26.17;;;1.10;99.90;;;;;;4943020;28;20061;-89
2022/12/09 09:51:37;;;;;;;58.22;27.25;;;1.20;99.90;;;;;;4963939;28;20102;-89
2022/12/09 09:54:03;;;;;;;61.97;26.92;;;2.30;99.90;;;;;;4947218;28;20141;-89
2022/12/09 09:56:42;;;;;;;67.25;28.20;;;1.60;99.90;;;;;;4975943;28;20133;-90
2022/12/09 09:59:22;;;;;;;68.55;28.23;;;1.10;99.90;;;;;;4944683;29;20063;-89
2022/12/09 10:02:17;;;;;;;70.15;28.10;;;1.10;99.90;;;;;;4969656;28;20392;-89
2022/12/09 10:05:12;;;;;;;68.28;27.38;;;1.20;99.90;;;;;;4948270;28;20055;-85
2022/12/09 10:07:42;;;;;;;73.15;27.58;;;1.10;99.90;;;;;;4937603;29;20047;-85
2022/12/09 10:10:37;;;;;;;73.95;26.70;;;1.10;99.90;;;;;;4969325;28;20052;-86
2022/12/09 10:13:19;;;;;;;74.35;27.60;;;1.20;99.90;;;;;;4936441;29;20050;-85
2022/12/09 10:16:15;;;;;;;64.03;26.92;;;1.10;99.90;;;;;;4920627;29;20055;-84
2022/12/09 10:19:07;;;;;;;76.57;28.95;;;1.10;99.90;;;;;;4920988;29;20461;-86
2022/12/09 10:21:35;;;;;;;72.38;26.08;;;1.10;99.90;;;;;;4921135;29;20459;-86
2022/12/09 10:24:32;;;;;;;67.15;26.60;;;1.10;99.90;;;;;;4935892;29;20050;-84
2022/12/09 10:27:06;;;;;;;68.85;27.60;;;1.20;99.90;;;;;;4936970;29;20404;-84
2022/12/09 10:29:50;;;;;;;71.53;28.65;;;1.30;99.90;;;;;;4936829;29;20054;-86
2022/12/09 10:32:18;;;;;;;71.43;27.33;;;1.20;99.90;;;;;;4936943;29;20052;-83
2022/12/09 10:34:45;;;;;;;72.35;27.55;;;1.20;99.90;;;;;;4936778;29;20494;-84
2022/12/09 10:37:24;;;;;;;75.22;27.85;;;1.20;99.90;;;;;;4936181;29;20047;-84
2022/12/09 10:40:15;;;;;;;77.95;29.52;;;2.40;99.90;;;;;;4920430;29;20138;-84
2022/12/09 10:45:31;;;;;;;65.80;25.90;;;2.30;99.90;;;;;;4955490;28;20056;-84
2022/12/09 10:47:57;;;;;;;70.72;26.80;;;1.10;99.90;;;;;;4920728;29;20051;-85
2022/12/09 10:50:32;;;;;;;69.20;26.63;;;1.80;99.90;;;;;;4936306;29;20052;-86
2022/12/09 10:53:05;;;;;;;64.07;26.15;;;1.10;99.90;;;;;;4952102;29;20051;-85
2022/12/09 10:55:34;;;;;;;65.97;26.40;;;1.20;99.90;;;;;;4937850;29;20108;-87
2022/12/09 10:58:14;;;;;;;70.97;26.23;;;1.20;99.90;;;;;;4922541;28;20103;-85
2022/12/09 11:00:40;;;;;;;70.22;27.73;;;1.60;99.90;;;;;;4942475;28;20058;-86
2022/12/09 11:03:28;;;;;;;68.50;27.33;;;1.30;99.90;;;;;;4957487;28;20053;-86
2022/12/09 11:06:23;;;;;;;65.78;27.58;;;1.30;99.90;;;;;;4957665;28;20492;-86
2022/12/09 11:08:57;;;;;;;64.80;27.13;;;1.30;99.90;;;;;;4956039;28;20043;-85
2022/12/09 11:11:47;;;;;;;73.88;27.38;;;1.20;99.90;;;;;;4958144;28;20478;-86
2022/12/09 11:14:24;;;;;;;76.13;28.20;;;1.10;99.90;;;;;;4975048;28;20046;-86
2022/12/09 11:16:55;;;;;;;71.55;27.35;;;0.40;99.90;;;;;;4974040;28;20057;-85
2022/12/09 11:19:32;;;;;;;71.78;26.88;;;2.40;99.90;;;;;;4957223;28;20057;-84
2022/12/09 11:22:20;;;;;;;66.43;26.40;;;1.10;99.90;;;;;;4958578;28;20046;-83
2022/12/09 11:24:45;;;;;;;69.63;25.80;;;1.10;99.90;;;;;;4942006;28;20043;-84
2022/12/09 11:27:31;;;;;;;66.20;26.80;;;1.20;99.90;;;;;;4973839;28;20051;-83
2022/12/09 11:30:17;;;;;;;63.88;26.35;;;1.20;99.90;;;;;;4989605;28;20495;-83
2022/12/09 11:33:11;;;;;;;64.00;26.05;;;1.20;99.90;;;;;;4973888;28;20499;-83
2022/12/09 11:35:42;;;;;;;67.60;25.40;;;1.10;99.90;;;;;;4957841;28;20055;-84
2022/12/09 11:38:33;;;;;;;61.42;26.48;;;1.10;99.90;;;;;;4957853;28;20054;-86
2022/12/09 11:41:11;;;;;;;67.43;26.58;;;1.00;99.90;;;;;;4956231;28;20486;-83
2022/12/09 11:43:48;;;;;;;67.00;26.02;;;1.60;99.90;;;;;;4957247;28;20046;-84
2022/12/09 11:46:21;;;;;;;64.25;25.40;;;1.00;99.90;;;;;;4941857;28;20047;-85
2022/12/09 11:49:00;;;;;;;57.88;25.63;;;1.10;99.90;;;;;;4957921;28;20393;-82
2022/12/09 11:51:31;;;;;;;63.78;25.33;;;1.10;99.90;;;;;;4957572;28;20093;-82
2022/12/09 11:54:20;;;;;;;64.10;25.23;;;1.80;99.90;;;;;;4957382;28;20394;-82
2022/12/09 11:56:46;;;;;;;60.30;25.92;;;2.10;99.90;;;;;;4954376;28;20121;-81
2022/12/09 11:59:13;;;;;;;62.65;25.90;;;1.10;99.90;;;;;;4957105;28;20066;-82
2022/12/09 12:01:53;;;;;;;64.25;24.20;;;2.30;99.90;;;;;;4957393;28;20062;-83
2022/12/09 12:04:35;;;;;;;64.38;24.75;;;1.50;99.90;;;;;;4957744;28;20054;-88
2022/12/09 12:07:04;;;;;;;60.90;25.30;;;1.20;99.90;;;;;;4956995;28;20387;-86
2022/12/09 12:09:55;;;;;;;64.70;27.27;;;2.30;99.90;;;;;;4957573;28;20038;-87
2022/12/09 12:12:44;;;;;;;67.13;26.83;;;1.10;99.90;;;;;;4943863;28;20133;-87
2022/12/09 12:15:20;;;;;;;74.53;28.85;;;1.20;99.90;;;;;;4957813;28;20066;-84
2022/12/09 12:17:51;;;;;;;78.85;29.88;;;1.20;99.90;;;;;;4960685;28;20399;-83
2022/12/09 12:20:16;;;;;;;70.85;27.77;;;2.30;99.90;;;;;;4961367;28;20059;-83
2022/12/09 12:22:54;;;;;;;74.28;26.80;;;1.20;99.90;;;;;;4960958;28;20515;-84
2022/12/09 12:25:54;;;;;;;67.25;26.38;;;1.30;99.90;;;;;;4945712;28;20066;-84
2022/12/09 12:28:38;;;;;;;70.68;27.05;;;1.30;99.90;;;;;;4960544;28;20054;-83
2022/12/09 12:31:11;;;;;;;64.67;25.40;;;1.20;99.90;;;;;;4961708;28;20047;-84
2022/12/09 12:33:49;;;;;;;64.43;28.02;;;1.20;99.90;;;;;;4960731;28;20298;-84
2022/12/09 12:36:27;;;;;;;63.28;25.85;;;1.20;99.90;;;;;;4960999;28;20189;-84
2022/12/09 12:38:53;;;;;;;66.28;27.58;;;1.30;99.90;;;;;;4945284;28;20062;-83
2022/12/09 12:41:40;;;;;;;66.82;26.95;;;2.70;99.90;;;;;;4945007;28;20062;-84
2022/12/09 12:47:44;;;;;;;66.38;27.10;;;1.30;99.90;;;;;;4960584;28;20134;-86
2022/12/09 12:50:31;;;;;;;65.70;27.02;;;1.20;99.90;;;;;;4960886;28;20118;-83